Time;durP1;ratioP1;P1;durP2;ratioP2;P2;SDS_P1;SDS_P2;PMS_P1;PMS_P2;Temp;Humidity;BMP_temperature;BMP_pressure;BME280_temperature;BME280_humidity;BME280_pressure;Samples;Min_cycle;Max_cycle;Signal;HPM_P1;HPM_P2
2022/07/24 00:00:07;;;;;;;;;14.75;13.00;;;;;23.91;53.83;101762.78;4962435;28;45231;-59
2022/07/24 00:02:33;;;;;;;;;15.25;15.00;;;;;23.86;53.44;101759.75;4962277;28;45424;-60
2022/07/24 00:05:00;;;;;;;;;17.75;14.25;;;;;23.85;54.00;101766.09;4961995;28;45302;-60
2022/07/24 00:07:25;;;;;;;;;20.75;17.00;;;;;23.83;53.48;101768.94;4962226;28;45171;-60
2022/07/24 00:09:51;;;;;;;;;19.50;14.50;;;;;23.80;53.77;101766.56;4962204;28;45472;-60
2022/07/24 00:12:16;;;;;;;;;17.50;16.75;;;;;23.81;54.08;101764.72;4962110;28;45532;-60
2022/07/24 00:14:42;;;;;;;;;18.00;15.50;;;;;23.80;53.80;101769.25;4960670;28;45924;-60
2022/07/24 00:17:07;;;;;;;;;18.00;17.25;;;;;23.78;53.84;101765.88;4962057;28;45269;-60
2022/07/24 00:19:33;;;;;;;;;19.25;15.25;;;;;23.77;54.24;101769.53;4962018;28;45227;-60
2022/07/24 00:21:59;;;;;;;;;20.00;18.75;;;;;23.75;54.22;101768.00;4961279;28;45482;-60
2022/07/24 00:24:25;;;;;;;;;19.75;15.50;;;;;23.75;54.14;101763.47;4960467;28;47399;-59
2022/07/24 00:26:50;;;;;;;;;19.50;18.25;;;;;23.74;54.48;101769.84;4961926;28;45452;-60
2022/07/24 00:29:17;;;;;;;;;15.50;14.25;;;;;23.70;53.95;101760.41;4961836;28;45255;-60
2022/07/24 00:31:42;;;;;;;;;19.25;15.50;;;;;23.72;54.24;101755.72;4962009;28;45405;-60
2022/07/24 00:34:08;;;;;;;;;15.00;14.75;;;;;23.69;53.98;101750.63;4960230;28;46583;-60
2022/07/24 00:36:34;;;;;;;;;16.75;14.75;;;;;23.68;54.44;101747.09;4961695;28;45290;-60
2022/07/24 00:38:59;;;;;;;;;16.50;14.75;;;;;23.67;54.40;101740.03;4943116;28;45497;-60
2022/07/24 00:41:25;;;;;;;;;15.75;15.50;;;;;23.67;54.32;101739.16;4960696;28;45274;-60
2022/07/24 00:44:00;;;;;;;;;17.00;14.75;;;;;23.65;54.45;101735.78;4961539;28;46044;-60
2022/07/24 00:46:27;;;;;;;;;21.75;15.75;;;;;23.65;54.18;101733.09;4961688;28;45193;-60
2022/07/24 00:48:52;;;;;;;;;14.25;13.25;;;;;23.63;54.80;101719.81;4961703;28;45452;-60
2022/07/24 00:51:18;;;;;;;;;17.75;15.75;;;;;23.59;54.67;101721.06;4961874;28;45515;-60
2022/07/24 00:53:44;;;;;;;;;18.00;16.00;;;;;23.54;54.57;101720.69;4976519;28;46892;-60
2022/07/24 00:56:09;;;;;;;;;16.00;15.00;;;;;23.52;54.43;101721.81;4961743;28;45329;-60
2022/07/24 00:58:35;;;;;;;;;18.50;16.00;;;;;23.50;54.94;101718.44;4961540;28;45331;-60
2022/07/24 01:01:01;;;;;;;;;19.00;13.00;;;;;23.49;55.04;101709.53;4961575;28;45450;-60
2022/07/24 01:03:26;;;;;;;;;13.50;13.50;;;;;23.48;54.86;101710.53;4961568;28;46298;-60
2022/07/24 01:05:52;;;;;;;;;18.25;15.25;;;;;23.47;55.08;101706.16;4961556;28;45348;-60
2022/07/24 01:08:18;;;;;;;;;19.50;15.75;;;;;23.47;54.51;101708.00;4960224;28;45291;-60
2022/07/24 01:10:44;;;;;;;;;16.25;16.00;;;;;23.42;54.50;101702.22;4961750;28;45242;-60
2022/07/24 01:13:10;;;;;;;;;16.00;14.00;;;;;23.36;54.59;101700.97;4961153;28;45393;-60
2022/07/24 01:15:36;;;;;;;;;15.75;10.75;;;;;23.37;55.05;101710.72;4961368;28;45159;-60
2022/07/24 01:18:02;;;;;;;;;19.00;13.50;;;;;23.35;55.21;101710.88;4961265;28;45241;-60
2022/07/24 01:20:28;;;;;;;;;18.50;17.25;;;;;23.33;54.99;101714.72;4961541;28;45523;-60
2022/07/24 01:22:54;;;;;;;;;16.75;15.25;;;;;23.33;55.05;101709.34;4961061;28;45218;-60
2022/07/24 01:25:19;;;;;;;;;16.25;15.50;;;;;23.33;55.56;101714.72;4961436;28;45437;-60
2022/07/24 01:27:45;;;;;;;;;14.75;13.75;;;;;23.31;55.51;101714.03;4964677;28;45285;-60
2022/07/24 01:30:11;;;;;;;;;17.75;15.25;;;;;23.31;54.87;101714.03;4964792;28;45568;-61
2022/07/24 01:32:37;;;;;;;;;17.75;16.75;;;;;23.30;55.05;101720.38;4964540;28;46096;-61
2022/07/24 01:35:03;;;;;;;;;19.00;17.50;;;;;23.28;55.62;101712.47;4964380;28;45337;-60
2022/07/24 01:37:29;;;;;;;;;26.25;22.00;;;;;23.22;55.81;101710.38;4958315;28;45255;-60
2022/07/24 01:39:54;;;;;;;;;29.00;26.75;;;;;23.21;55.21;101716.75;4953430;28;45345;-60
2022/07/24 01:42:20;;;;;;;;;36.00;30.00;;;;;23.18;55.98;101710.84;4964218;28;46242;-60
2022/07/24 01:44:46;;;;;;;;;42.00;31.25;;;;;23.16;55.57;101712.84;4964363;28;45231;-60
2022/07/24 01:47:12;;;;;;;;;32.25;30.25;;;;;23.17;55.95;101714.53;4964381;28;45179;-60
2022/07/24 01:49:37;;;;;;;;;40.75;31.00;;;;;23.16;56.04;101707.47;4979407;28;45572;-60
2022/07/24 01:52:03;;;;;;;;;33.75;30.00;;;;;23.17;55.65;101706.47;4964221;28;45341;-60
2022/07/24 01:54:28;;;;;;;;;35.50;30.25;;;;;23.17;56.20;101701.09;4964375;28;45179;-60
2022/07/24 01:56:54;;;;;;;;;32.25;30.25;;;;;23.18;55.57;101708.16;4964186;28;45322;-60
2022/07/24 01:59:19;;;;;;;;;27.50;24.50;;;;;23.17;55.79;101704.63;4964433;28;45292;-60
2022/07/24 02:01:45;;;;;;;;;28.25;20.25;;;;;23.18;56.43;101703.63;4963817;28;45744;-60
2022/07/24 02:04:11;;;;;;;;;26.50;18.25;;;;;23.17;56.22;101701.94;4964119;28;45278;-60
2022/07/24 02:06:36;;;;;;;;;21.00;19.75;;;;;23.17;56.03;101701.09;4964046;28;45374;-60
2022/07/24 02:09:02;;;;;;;;;19.00;18.75;;;;;23.16;55.98;101699.41;4964364;28;45348;-60
2022/07/24 02:11:28;;;;;;;;;20.50;18.25;;;;;23.14;56.27;101699.53;4963675;28;46705;-60
2022/07/24 02:13:55;;;;;;;;;23.25;19.00;;;;;23.14;56.26;101696.84;4962625;28;45394;-60
2022/07/24 02:16:21;;;;;;;;;18.75;15.00;;;;;23.10;56.40;101704.38;4963936;28;45251;-60
2022/07/24 02:18:46;;;;;;;;;20.50;16.50;;;;;23.07;56.16;101696.63;4963729;28;45167;-60
2022/07/24 02:21:12;;;;;;;;;17.50;17.00;;;;;23.05;56.50;101690.53;4963737;28;45756;-60
2022/07/24 02:23:37;;;;;;;;;19.75;17.00;;;;;23.01;56.21;101682.94;4963867;28;45206;-60
2022/07/24 02:26:04;;;;;;;;;22.25;18.00;;;;;23.01;55.96;101691.00;4963726;28;45329;-60
2022/07/24 02:28:29;;;;;;;;;20.25;20.25;;;;;23.01;56.71;101691.00;4963845;28;45564;-60
2022/07/24 02:30:55;;;;;;;;;19.50;18.00;;;;;22.99;56.26;101680.41;4963385;28;46061;-60
2022/07/24 02:33:20;;;;;;;;;22.00;19.50;;;;;22.97;56.62;101676.16;4963722;28;45262;-60
2022/07/24 02:35:46;;;;;;;;;19.75;18.00;;;;;22.94;56.45;101674.59;4963678;28;45311;-60
2022/07/24 02:38:11;;;;;;;;;19.25;17.50;;;;;22.94;56.55;101674.59;4950459;28;45436;-60
2022/07/24 02:40:37;;;;;;;;;18.00;15.00;;;;;22.94;56.48;101669.25;4958221;28;45653;-60
2022/07/24 02:43:02;;;;;;;;;17.25;15.50;;;;;22.92;56.55;101673.91;4963546;28;45303;-60
2022/07/24 02:45:28;;;;;;;;;18.50;16.75;;;;;22.90;56.45;101672.34;4963706;28;45338;-60
2022/07/24 02:47:55;;;;;;;;;19.25;16.75;;;;;22.88;56.41;101669.81;4963677;28;45410;-60
2022/07/24 02:50:23;;;;;;;;;18.00;17.00;;;;;22.86;56.66;101660.22;4963288;28;46256;-60
2022/07/24 02:52:49;;;;;;;;;16.50;15.25;;;;;22.84;56.81;101660.34;4963495;28;45321;-60
2022/07/24 02:55:15;;;;;;;;;23.50;20.50;;;;;22.84;56.95;101653.13;4963445;28;45340;-60
2022/07/24 02:57:40;;;;;;;;;16.00;14.50;;;;;22.85;56.82;101651.31;4963320;28;45464;-60
2022/07/24 03:00:09;;;;;;;;;19.50;16.50;;;;;22.84;56.72;101652.28;4963263;28;45238;-60
2022/07/24 03:02:35;;;;;;;;;17.75;17.00;;;;;22.81;57.12;101658.78;4963296;28;45223;-60
2022/07/24 03:05:03;;;;;;;;;24.00;18.00;;;;;22.82;56.61;101648.88;4963237;28;45389;-60
2022/07/24 03:07:28;;;;;;;;;17.50;15.25;;;;;22.80;56.77;101640.13;4963469;28;45516;-60
2022/07/24 03:09:54;;;;;;;;;23.00;19.25;;;;;22.81;57.07;101641.81;4962999;28;46089;-60
2022/07/24 03:12:20;;;;;;;;;18.50;17.50;;;;;22.82;57.21;101646.19;4963053;28;45262;-60
2022/07/24 03:14:45;;;;;;;;;18.25;17.75;;;;;22.82;57.01;101635.44;4963169;28;45298;-60
2022/07/24 03:17:11;;;;;;;;;17.50;16.75;;;;;22.84;57.00;101638.84;4963136;28;45520;-60
2022/07/24 03:19:36;;;;;;;;;16.00;15.00;;;;;22.84;56.84;101641.53;4962852;28;45484;-60
2022/07/24 03:22:02;;;;;;;;;19.75;15.75;;;;;22.84;56.57;101647.75;4963101;28;45266;-60
2022/07/24 03:24:28;;;;;;;;;15.75;15.75;;;;;22.83;56.79;101651.44;4962619;28;45567;-60
2022/07/24 03:26:53;;;;;;;;;19.00;15.50;;;;;22.83;56.77;101646.06;4962867;28;45348;-60
2022/07/24 03:29:19;;;;;;;;;18.50;16.25;;;;;22.83;57.04;101653.28;4962704;28;46247;-60
2022/07/24 03:31:45;;;;;;;;;16.50;16.50;;;;;22.82;56.89;101649.72;4962823;28;45216;-60
2022/07/24 03:34:10;;;;;;;;;18.00;15.75;;;;;22.82;56.59;101641.66;4962882;28;45158;-60
2022/07/24 03:36:35;;;;;;;;;18.25;15.50;;;;;22.84;57.00;101647.75;4962860;28;45362;-59
2022/07/24 03:39:02;;;;;;;;;19.75;18.75;;;;;22.86;56.70;101644.09;4945000;28;46176;-60
2022/07/24 03:41:27;;;;;;;;;24.00;19.00;;;;;22.87;56.84;101645.78;4962814;28;45371;-60
2022/07/24 03:43:53;;;;;;;;;16.25;15.75;;;;;22.87;56.59;101643.94;4962693;28;45270;-60
2022/07/24 03:46:18;;;;;;;;;16.25;15.50;;;;;22.88;56.46;101647.47;4962800;28;45446;-60
2022/07/24 03:48:44;;;;;;;;;18.00;18.00;;;;;22.87;56.90;101641.25;4962222;28;45905;-60
2022/07/24 03:51:09;;;;;;;;;17.25;15.75;;;;;22.89;56.30;101638.44;4962641;28;45406;-60
2022/07/24 03:53:35;;;;;;;;;17.25;17.25;;;;;22.89;56.38;101638.44;4962720;28;45279;-60
2022/07/24 03:56:04;;;;;;;;;13.50;12.00;;;;;22.89;56.48;101641.09;4962775;28;45438;-60
2022/07/24 03:58:30;;;;;;;;;15.50;15.25;;;;;22.88;56.68;101642.94;4962261;28;45517;-60
2022/07/24 04:00:55;;;;;;;;;18.25;15.00;;;;;22.84;56.35;101630.78;4977555;28;45326;-60
2022/07/24 04:03:21;;;;;;;;;18.50;17.75;;;;;22.81;56.46;101637.28;4962656;28;45293;-60
2022/07/24 04:05:46;;;;;;;;;18.00;16.50;;;;;22.81;56.51;101644.50;4962560;28;45714;-60
2022/07/24 04:08:12;;;;;;;;;18.75;16.00;;;;;22.76;56.42;101642.28;4962328;28;45427;-60
2022/07/24 04:10:37;;;;;;;;;20.00;17.75;;;;;22.74;56.75;101643.41;4962280;28;45227;-59
2022/07/24 04:13:02;;;;;;;;;18.75;15.00;;;;;22.71;56.92;101643.72;4962254;28;45281;-60
2022/07/24 04:15:28;;;;;;;;;17.00;16.00;;;;;22.68;56.94;101650.25;4962460;28;45284;-60
2022/07/24 04:17:54;;;;;;;;;18.00;15.75;;;;;22.64;56.88;101651.50;4961873;28;46017;-60
2022/07/24 04:20:19;;;;;;;;;19.50;18.75;;;;;22.61;57.06;101659.03;4962285;28;45504;-60
2022/07/24 04:22:47;;;;;;;;;19.75;19.75;;;;;22.61;57.13;101654.50;4962261;28;45317;-60
2022/07/24 04:25:12;;;;;;;;;19.50;17.50;;;;;22.62;57.13;101656.19;4962231;28;45389;-60
2022/07/24 04:27:38;;;;;;;;;20.00;16.25;;;;;22.61;57.60;101651.81;4961740;28;45246;-60
2022/07/24 04:30:04;;;;;;;;;17.50;16.50;;;;;22.60;57.42;101652.81;4962149;28;45309;-60
2022/07/24 04:32:29;;;;;;;;;21.25;18.50;;;;;22.60;57.42;101654.66;4962017;28;45323;-60
2022/07/24 04:34:55;;;;;;;;;16.00;14.25;;;;;22.59;57.15;101648.41;4962088;28;45301;-60
2022/07/24 04:37:20;;;;;;;;;15.50;15.25;;;;;22.58;57.50;101649.41;4956417;28;46332;-60
2022/07/24 04:39:46;;;;;;;;;20.00;17.25;;;;;22.58;57.38;101658.31;4950132;28;45164;-60
2022/07/24 04:42:11;;;;;;;;;15.00;15.00;;;;;22.58;57.49;101652.94;4961800;28;45210;-60
2022/07/24 04:44:37;;;;;;;;;16.75;12.25;;;;;22.63;57.22;101647.13;4961947;28;45163;-60
2022/07/24 04:47:02;;;;;;;;;18.50;13.25;;;;;22.67;57.36;101650.34;4961601;28;45924;-60
2022/07/24 04:49:28;;;;;;;;;19.75;15.25;;;;;22.71;57.22;101647.25;4961969;28;45264;-61
2022/07/24 04:51:53;;;;;;;;;18.25;17.50;;;;;22.74;57.00;101646.94;4961836;28;45254;-61
2022/07/24 04:54:18;;;;;;;;;17.25;15.75;;;;;22.75;56.94;101642.41;4961913;28;45322;-60
2022/07/24 04:56:44;;;;;;;;;20.75;17.50;;;;;22.77;57.10;101645.81;4961315;28;46016;-60
2022/07/24 04:59:09;;;;;;;;;19.50;16.00;;;;;22.79;57.09;101647.34;4961997;28;45392;-60
2022/07/24 05:01:35;;;;;;;;;17.75;14.25;;;;;22.79;57.16;101643.81;4963635;28;45326;-60
2022/07/24 05:04:00;;;;;;;;;19.50;17.75;;;;;22.81;56.85;101652.56;4965360;28;45274;-60
2022/07/24 05:06:26;;;;;;;;;17.75;17.75;;;;;22.82;56.72;101655.09;4965004;28;46118;-60
2022/07/24 05:08:51;;;;;;;;;19.25;17.00;;;;;22.81;57.12;101642.66;4965270;28;45440;-60
2022/07/24 05:11:17;;;;;;;;;18.75;16.00;;;;;22.77;56.81;101645.81;4964825;28;45254;-60
2022/07/24 05:13:42;;;;;;;;;18.00;17.25;;;;;22.74;57.09;101636.19;4965237;28;45339;-60
2022/07/24 05:16:08;;;;;;;;;18.50;14.50;;;;;22.74;57.19;101646.09;4964575;28;45293;-60
2022/07/24 05:18:34;;;;;;;;;16.00;15.50;;;;;22.74;56.95;101644.25;4964960;28;45314;-60
2022/07/24 05:20:59;;;;;;;;;15.50;14.00;;;;;22.75;56.63;101647.78;4964901;28;45294;-60
2022/07/24 05:23:25;;;;;;;;;18.00;15.25;;;;;22.78;57.07;101639.44;4965194;28;45191;-60
2022/07/24 05:25:50;;;;;;;;;15.75;15.75;;;;;22.83;57.23;101650.59;4964633;28;45160;-60
2022/07/24 05:28:17;;;;;;;;;18.25;15.50;;;;;22.87;56.90;101652.00;4964588;28;45252;-60
2022/07/24 05:30:42;;;;;;;;;14.75;14.00;;;;;22.90;56.54;101654.38;4964726;28;45219;-60
2022/07/24 05:33:07;;;;;;;;;16.50;15.25;;;;;22.91;56.52;101647.16;4964852;28;45400;-60
2022/07/24 05:35:33;;;;;;;;;18.75;15.00;;;;;22.98;56.13;101648.28;4964496;28;45482;-60
2022/07/24 05:37:58;;;;;;;;;21.75;13.25;;;;;23.03;56.07;101648.69;4954178;28;45175;-60
2022/07/24 05:40:24;;;;;;;;;18.75;16.25;;;;;23.07;56.52;101652.78;4957465;28;45569;-60
2022/07/24 05:42:49;;;;;;;;;20.50;19.00;;;;;23.12;56.06;101647.78;4964518;28;45271;-60
2022/07/24 05:45:15;;;;;;;;;19.00;17.00;;;;;23.19;56.04;101650.72;4964463;28;45942;-60
2022/07/24 05:47:41;;;;;;;;;16.00;13.00;;;;;23.26;55.80;101657.19;4964317;28;45337;-60
2022/07/24 05:50:11;;;;;;;;;17.00;15.00;;;;;23.30;56.19;101639.72;4964492;28;45397;-60
2022/07/24 05:52:38;;;;;;;;;20.25;16.50;;;;;23.35;56.03;101650.88;4964241;28;45227;-60
2022/07/24 05:55:04;;;;;;;;;17.50;16.00;;;;;23.38;56.09;101647.88;4964201;28;46197;-60
2022/07/24 05:57:30;;;;;;;;;17.00;14.50;;;;;23.43;55.39;101645.59;4963969;28;45325;-60
2022/07/24 05:59:55;;;;;;;;;15.75;14.25;;;;;23.48;55.76;101645.16;4964337;28;45552;-60
2022/07/24 06:02:21;;;;;;;;;19.00;14.50;;;;;23.53;55.80;101642.81;4964181;28;45318;-60
2022/07/24 06:04:46;;;;;;;;;17.00;16.75;;;;;23.57;55.60;101638.84;4964089;28;45329;-60
2022/07/24 06:07:12;;;;;;;;;17.50;13.00;;;;;23.64;55.49;101648.88;4979267;28;45489;-60
2022/07/24 06:09:38;;;;;;;;;16.75;16.50;;;;;23.72;55.28;101640.03;4962967;28;45307;-60
2022/07/24 06:12:04;;;;;;;;;17.25;16.25;;;;;23.79;54.83;101643.78;4964069;28;45317;-60
2022/07/24 06:14:31;;;;;;;;;17.75;14.00;;;;;23.84;55.07;101640.63;4963920;28;45658;-60
2022/07/24 06:16:56;;;;;;;;;15.25;15.25;;;;;23.88;54.40;101640.16;4963771;28;45246;-60
2022/07/24 06:19:22;;;;;;;;;16.25;15.25;;;;;23.94;54.35;101638.72;4964080;28;45218;-60
2022/07/24 06:21:47;;;;;;;;;19.75;15.25;;;;;23.99;54.59;101639.06;4964168;28;45319;-60
2022/07/24 06:24:13;;;;;;;;;16.50;12.50;;;;;24.08;53.85;101638.13;4963911;28;45620;-60
2022/07/24 06:26:38;;;;;;;;;20.00;14.25;;;;;24.15;54.32;101636.50;4963787;28;45238;-60
2022/07/24 06:29:03;;;;;;;;;16.50;14.50;;;;;24.22;53.53;101634.03;4964148;28;45203;-60
2022/07/24 06:31:29;;;;;;;;;15.50;15.25;;;;;24.27;53.91;101634.41;4963880;28;45161;-60
2022/07/24 06:33:54;;;;;;;;;19.25;16.75;;;;;24.34;53.43;101632.78;4963873;28;45995;-60
2022/07/24 06:36:20;;;;;;;;;15.50;10.25;;;;;24.42;53.25;101632.00;4963555;28;45306;-60
2022/07/24 06:38:45;;;;;;;;;15.75;13.00;;;;;24.50;53.48;101632.03;4947113;28;45245;-60
2022/07/24 06:41:11;;;;;;;;;17.75;15.50;;;;;24.59;53.22;101630.25;4962831;28;45542;-60
2022/07/24 06:43:36;;;;;;;;;19.00;15.25;;;;;24.64;52.73;101620.66;4963713;28;45707;-60
2022/07/24 06:46:02;;;;;;;;;16.25;13.50;;;;;24.72;53.25;101620.69;4963434;28;45349;-60
2022/07/24 06:48:29;;;;;;;;;14.25;14.25;;;;;24.78;52.78;101617.34;4963834;28;45385;-60
2022/07/24 06:50:55;;;;;;;;;18.00;14.00;;;;;24.85;52.50;101622.94;4963734;28;45651;-60
2022/07/24 06:53:20;;;;;;;;;17.00;15.50;;;;;24.89;52.70;101618.09;4963433;28;45229;-60
2022/07/24 06:55:47;;;;;;;;;15.00;13.25;;;;;24.90;52.88;101615.22;4963453;28;45255;-60
2022/07/24 06:58:12;;;;;;;;;24.50;16.75;;;;;24.92;52.14;101618.59;4963458;28;45234;-60
2022/07/24 07:00:38;;;;;;;;;14.25;13.75;;;;;24.97;52.38;101607.31;4963572;28;45549;-60
2022/07/24 07:03:03;;;;;;;;;16.75;16.75;;;;;25.03;52.51;101617.47;4963141;28;45216;-60
2022/07/24 07:05:29;;;;;;;;;18.50;16.00;;;;;25.09;52.55;101619.50;4963319;28;45377;-60
2022/07/24 07:07:54;;;;;;;;;15.50;13.75;;;;;25.17;52.45;101611.44;4963619;28;45284;-60
2022/07/24 07:10:20;;;;;;;;;17.50;15.25;;;;;25.25;52.04;101616.00;4963440;28;45484;-60
2022/07/24 07:12:45;;;;;;;;;19.00;17.50;;;;;25.29;51.85;101618.22;4962884;28;45504;-60
2022/07/24 07:15:12;;;;;;;;;15.25;14.50;;;;;25.36;52.00;101621.09;4963070;28;45364;-60
2022/07/24 07:17:39;;;;;;;;;17.75;14.00;;;;;25.42;52.32;101622.28;4963079;28;45330;-60
2022/07/24 07:20:05;;;;;;;;;12.75;12.75;;;;;25.49;52.02;101618.75;4963089;28;45431;-60
2022/07/24 07:22:31;;;;;;;;;20.75;17.00;;;;;25.53;51.82;101617.41;4962886;28;45627;-60
2022/07/24 07:24:56;;;;;;;;;20.75;16.00;;;;;25.60;52.18;101617.59;4962126;28;45186;-60
2022/07/24 07:27:22;;;;;;;;;17.25;16.00;;;;;25.65;51.41;101627.88;4962859;28;45151;-60
2022/07/24 07:29:47;;;;;;;;;23.50;18.50;;;;;25.68;51.83;101606.81;4963061;28;45483;-60
2022/07/24 07:32:13;;;;;;;;;18.00;16.75;;;;;25.75;51.61;101615.06;4962747;28;45710;-60
2022/07/24 07:34:38;;;;;;;;;17.00;16.00;;;;;25.81;51.63;101620.63;4977657;28;45274;-61
2022/07/24 07:37:03;;;;;;;;;18.50;17.25;;;;;25.86;51.53;101615.59;4959857;28;45184;-60
2022/07/24 07:39:29;;;;;;;;;19.50;19.50;;;;;25.91;51.76;101608.81;4948374;28;45191;-60
2022/07/24 07:41:55;;;;;;;;;19.25;18.25;;;;;25.93;51.09;101613.06;4962486;28;46066;-60
2022/07/24 07:44:20;;;;;;;;;19.00;16.25;;;;;25.97;51.24;101617.09;4962504;28;45420;-60
2022/07/24 07:46:45;;;;;;;;;16.75;16.75;;;;;25.99;51.07;101614.22;4962820;28;45529;-60
2022/07/24 07:49:11;;;;;;;;;17.50;16.75;;;;;26.01;51.24;101606.81;4962784;28;45402;-60
2022/07/24 07:51:37;;;;;;;;;19.00;17.25;;;;;26.03;51.14;101613.72;4962447;28;45404;-60
2022/07/24 07:54:02;;;;;;;;;16.25;15.00;;;;;26.07;51.19;101606.13;4962433;28;45312;-60
2022/07/24 07:56:30;;;;;;;;;21.00;18.00;;;;;26.04;50.98;101601.91;4962530;28;45274;-60
2022/07/24 07:58:56;;;;;;;;;18.25;18.25;;;;;26.03;50.89;101604.78;4962618;28;45246;-60
2022/07/24 08:01:21;;;;;;;;;17.75;16.00;;;;;26.02;51.00;101605.78;4962207;28;45405;-60
2022/07/24 08:03:47;;;;;;;;;19.00;18.25;;;;;26.07;50.83;101608.84;4962464;28;45378;-60
2022/07/24 08:06:12;;;;;;;;;18.25;17.00;;;;;26.12;51.06;101598.34;4962448;28;45317;-60
2022/07/24 08:08:38;;;;;;;;;21.00;19.00;;;;;26.17;50.99;101593.28;4962614;28;45333;-61
2022/07/24 08:11:04;;;;;;;;;23.00;19.75;;;;;26.22;50.89;101593.59;4962172;28;45299;-61
2022/07/24 08:13:29;;;;;;;;;19.00;16.50;;;;;26.28;50.70;101595.59;4961969;28;45424;-60
2022/07/24 08:15:54;;;;;;;;;23.75;20.00;;;;;26.34;50.70;101594.06;4962393;28;45687;-60
2022/07/24 08:18:20;;;;;;;;;21.50;19.50;;;;;26.37;50.87;101591.03;4962131;28;45420;-60
2022/07/24 08:20:45;;;;;;;;;19.00;18.00;;;;;26.42;50.68;101592.22;4962283;28;46209;-60
2022/07/24 08:23:11;;;;;;;;;18.25;18.00;;;;;26.46;50.54;101590.00;4962080;28;45306;-60
2022/07/24 08:25:37;;;;;;;;;19.25;19.00;;;;;26.49;50.41;101586.13;4962088;28;45350;-60
2022/07/24 08:28:03;;;;;;;;;19.50;17.25;;;;;26.56;50.32;101581.72;4962017;28;45485;-60
2022/07/24 08:30:28;;;;;;;;;21.25;17.00;;;;;26.59;50.28;101593.00;4961913;28;45425;-60
2022/07/24 08:32:53;;;;;;;;;17.50;16.50;;;;;26.61;50.34;101590.97;4961925;28;45358;-60
2022/07/24 08:35:20;;;;;;;;;20.25;16.50;;;;;26.64;50.03;101598.75;4959737;28;45469;-60
2022/07/24 08:37:46;;;;;;;;;20.00;17.75;;;;;26.71;49.73;101588.06;4953365;28;45493;-60
2022/07/24 08:40:12;;;;;;;;;25.00;20.00;;;;;26.76;50.01;101574.84;4953072;28;46392;-60
2022/07/24 08:42:38;;;;;;;;;15.25;15.25;;;;;26.77;49.59;101578.38;4961718;28;45179;-60
2022/07/24 08:45:04;;;;;;;;;20.00;18.50;;;;;26.81;49.50;101585.16;4962168;28;45329;-60
2022/07/24 08:47:32;;;;;;;;;19.00;16.75;;;;;26.85;49.26;101570.25;4961791;28;45536;-60
2022/07/24 08:49:59;;;;;;;;;17.75;16.25;;;;;26.93;49.33;101572.91;4961560;28;46268;-60
2022/07/24 08:52:25;;;;;;;;;12.75;11.25;;;;;26.99;48.95;101572.19;4960372;28;45413;-60
2022/07/24 08:54:52;;;;;;;;;19.25;16.25;;;;;27.05;49.14;101565.28;4961789;28;45222;-60
2022/07/24 08:57:17;;;;;;;;;19.75;17.75;;;;;27.12;48.94;101567.09;4961577;28;45322;-60
2022/07/24 08:59:43;;;;;;;;;19.00;19.00;;;;;27.15;49.03;101560.47;4961602;28;46320;-60
2022/07/24 09:02:09;;;;;;;;;16.00;16.00;;;;;27.22;48.36;101564.13;4961592;28;45251;-60
2022/07/24 09:04:40;;;;;;;;;14.00;14.00;;;;;27.24;48.10;101549.41;4961935;28;45226;-60
2022/07/24 09:07:14;;;;;;;;;12.25;11.75;;;;;27.31;47.54;101551.38;4961644;28;46321;-60
2022/07/24 09:09:41;;;;;;;;;10.75;10.75;;;;;27.37;47.59;101556.91;4961366;28;46200;-60
2022/07/24 09:12:16;;;;;;;;;17.00;14.00;;;;;27.43;47.43;101539.97;4961439;28;45319;-60
2022/07/24 09:14:47;;;;;;;;;14.25;12.25;;;;;27.49;47.27;101541.06;4961568;28;45286;-60
2022/07/24 09:17:21;;;;;;;;;14.25;13.00;;;;;27.55;46.89;101543.06;4961578;28;45397;-60
2022/07/24 09:19:55;;;;;;;;;13.75;13.00;;;;;27.55;46.21;101540.34;4961504;28;45361;-60
2022/07/24 09:22:28;;;;;;;;;15.25;13.00;;;;;27.57;46.38;101541.03;4961303;28;45315;-60
2022/07/24 09:25:09;;;;;;;;;12.50;12.25;;;;;27.62;46.12;101543.19;4961324;28;45445;-60
2022/07/24 09:27:36;;;;;;;;;12.25;12.00;;;;;27.69;46.00;101536.03;4961308;28;45472;-60
2022/07/24 09:30:03;;;;;;;;;13.50;13.50;;;;;27.77;45.56;101535.97;4961216;28;46406;-60
2022/07/24 09:32:29;;;;;;;;;8.50;8.00;;;;;27.81;45.63;101532.72;4961092;28;45258;-60
2022/07/24 09:34:55;;;;;;;;;9.25;9.25;;;;;27.91;45.29;101527.03;4961353;28;45175;-60
2022/07/24 09:37:21;;;;;;;;;14.00;11.00;;;;;27.98;45.07;101527.97;4955968;28;45290;-60
2022/07/24 09:39:47;;;;;;;;;11.00;10.00;;;;;28.07;44.80;101526.00;4948971;28;45557;-60
2022/07/24 09:42:13;;;;;;;;;10.25;9.50;;;;;28.08;44.59;101514.13;4960985;28;45400;-63
2022/07/24 09:44:40;;;;;;;;;10.00;9.00;;;;;28.14;44.44;101505.28;4960023;28;46564;-60
2022/07/24 09:47:08;;;;;;;;;13.50;12.00;;;;;28.22;44.10;101512.47;4962459;28;45441;-60
2022/07/24 09:49:34;;;;;;;;;10.00;8.25;;;;;28.30;44.11;101507.81;4964384;28;45334;-60
2022/07/24 09:52:14;;;;;;;;;12.75;11.00;;;;;28.39;43.82;101508.53;4964387;28;45444;-60
2022/07/24 09:54:43;;;;;;;;;10.50;10.50;;;;;28.45;43.17;101502.38;4964377;28;45357;-60
2022/07/24 09:57:28;;;;;;;;;15.00;13.00;;;;;28.56;43.65;101506.47;4964137;28;45271;-60
2022/07/24 09:59:55;;;;;;;;;14.00;11.50;;;;;28.65;43.41;101503.44;4964123;28;45232;-60
2022/07/24 10:02:23;;;;;;;;;11.50;10.00;;;;;28.74;43.42;101497.91;4964134;28;45363;-60
2022/07/24 10:04:51;;;;;;;;;11.50;11.25;;;;;28.82;43.16;101498.63;4964402;28;45358;-60
2022/07/24 10:07:19;;;;;;;;;11.50;9.50;;;;;28.88;42.38;101494.28;4964531;28;45460;-60
2022/07/24 10:09:48;;;;;;;;;11.25;9.00;;;;;28.94;42.02;101492.72;4963820;28;45380;-60
2022/07/24 10:12:17;;;;;;;;;12.50;10.75;;;;;29.02;41.85;101485.31;4963957;28;45322;-60
2022/07/24 10:14:48;;;;;;;;;9.00;9.00;;;;;29.07;41.84;101488.28;4964038;28;45303;-60
2022/07/24 10:17:15;;;;;;;;;10.00;9.00;;;;;29.10;41.46;101487.88;4963950;28;45576;-60
2022/07/24 10:19:46;;;;;;;;;10.00;10.00;;;;;29.14;41.14;101488.31;4963685;28;45299;-60
2022/07/24 10:22:14;;;;;;;;;14.00;10.25;;;;;29.18;41.05;101487.75;4964058;28;45400;-61
2022/07/24 10:25:04;;;;;;;;;9.50;8.25;;;;;29.26;41.09;101484.06;4963902;28;45406;-60
2022/07/24 10:27:34;;;;;;;;;12.25;11.00;;;;;29.35;40.64;101482.03;4963905;28;45342;-60
2022/07/24 10:30:05;;;;;;;;;10.75;10.25;;;;;29.40;40.20;101490.44;4963866;28;46329;-60
2022/07/24 10:32:33;;;;;;;;;12.50;10.25;;;;;29.47;40.61;101483.19;4963534;28;45369;-60
2022/07/24 10:35:09;;;;;;;;;9.25;8.00;;;;;29.57;39.80;101480.16;4963920;28;45333;-60
2022/07/24 10:37:53;;;;;;;;;9.00;9.00;;;;;29.64;39.98;101470.19;4956599;28;45383;-60
2022/07/24 10:40:47;;;;;;;;;9.50;9.00;;;;;29.70;39.70;101470.25;4955664;28;46305;-60
2022/07/24 10:43:18;;;;;;;;;9.00;8.50;;;;;29.84;39.34;101476.56;4961882;28;45409;-60
2022/07/24 10:45:45;;;;;;;;;9.25;8.50;;;;;29.91;39.05;101469.28;4963383;28;45197;-60
2022/07/24 10:48:20;;;;;;;;;0.00;0.00;;;;;29.98;38.89;101463.91;4963679;28;45351;-60
2022/07/24 10:51:14;;;;;;;;;9.25;9.25;;;;;30.06;39.12;101469.16;4963273;28;46159;-60
2022/07/24 10:53:50;;;;;;;;;10.25;7.50;;;;;30.12;38.61;101456.69;4962131;28;45453;-60
2022/07/24 10:56:15;;;;;;;;;9.75;9.25;;;;;30.16;38.48;101452.53;4963328;28;45392;-60
2022/07/24 10:59:03;;;;;;;;;11.00;9.25;;;;;30.18;38.38;101456.72;4962575;28;45324;-60
2022/07/24 11:01:42;;;;;;;;;8.50;8.25;;;;;30.17;38.38;101452.31;4963463;28;45360;-60
2022/07/24 11:04:20;;;;;;;;;7.75;7.75;;;;;30.15;38.53;101448.97;4963184;28;45295;-60
2022/07/24 11:07:01;;;;;;;;;11.25;10.75;;;;;30.17;37.97;101438.72;4963454;28;45338;-60